Terminal Aerodrome Forecast
Issued by NWS

Home | Current Version | Previous Version | Text Only | Print | Product List | Glossary On
Versions: 1 2 3 4 5 6 7 8 9 10 11 12 13 14 15 16 17 18
000
FTUS43 KFGF 232300
TAFTVF
TAF
KTVF 232322Z 2400/2424 18013G19KT P6SM SCT050
     FM240100 17012KT P6SM BKN050
     FM240600 16010KT P6SM BKN035
     FM241000 16009KT P6SM OVC015
     FM241900 18010KT P6SM BKN030
     FM242100 18011KT P6SM SCT035
      AMD LTD TO CLD VIS AND WIND=

USA.gov is the U.S. government's official web portal to all federal, state and local government web resources and services.